createdAt,value
2023-05-18T00:00:15.275Z,9.32
2023-05-18T00:01:15.306Z,9.30
2023-05-18T00:02:15.331Z,9.41
2023-05-18T00:03:15.503Z,9.30
2023-05-18T00:04:15.383Z,9.31
2023-05-18T00:05:15.349Z,9.30
2023-05-18T00:06:15.374Z,9.29
2023-05-18T00:07:15.375Z,9.28
2023-05-18T00:08:15.386Z,9.11
2023-05-18T00:09:15.415Z,9.21
2023-05-18T00:10:15.471Z,9.30
2023-05-18T00:11:15.447Z,9.16
2023-05-18T00:12:15.463Z,9.08
2023-05-18T00:13:15.470Z,9.08
2023-05-18T00:14:15.492Z,9.15
2023-05-18T00:15:15.495Z,9.11
2023-05-18T00:16:15.595Z,9.10
2023-05-18T00:17:15.540Z,8.98
2023-05-18T00:18:15.547Z,8.96
2023-05-18T00:19:15.609Z,9.05
2023-05-18T00:20:15.580Z,9.05
2023-05-18T00:21:15.598Z,9.02
2023-05-18T00:22:15.627Z,9.02
2023-05-18T00:23:15.647Z,9.02
2023-05-18T00:24:15.672Z,8.97
2023-05-18T00:25:15.682Z,8.85
2023-05-18T00:26:15.707Z,8.85
2023-05-18T00:27:15.723Z,8.83
2023-05-18T00:28:15.726Z,8.82
2023-05-18T00:29:15.757Z,8.87
2023-05-18T00:30:15.766Z,8.81
2023-05-18T00:31:15.832Z,8.82
2023-05-18T00:32:15.832Z,8.76
2023-05-18T00:33:15.830Z,8.79
2023-05-18T00:34:15.877Z,8.81
2023-05-18T00:35:15.867Z,8.80
2023-05-18T00:36:15.868Z,8.66
2023-05-18T00:37:15.900Z,8.64
2023-05-18T00:38:15.907Z,8.68
2023-05-18T00:39:15.926Z,8.60
2023-05-18T00:40:15.948Z,8.53
2023-05-18T00:41:15.963Z,8.58
2023-05-18T00:42:15.983Z,8.53
2023-05-18T00:43:15.991Z,8.65
2023-05-18T00:44:16.017Z,8.52
2023-05-18T00:45:16.032Z,8.58
2023-05-18T00:46:16.118Z,8.50
2023-05-18T00:47:16.086Z,8.44
2023-05-18T00:48:16.217Z,8.49
2023-05-18T00:49:16.132Z,8.50
2023-05-18T00:50:16.146Z,8.38
2023-05-18T00:51:16.167Z,8.44
2023-05-18T00:52:16.176Z,8.37
2023-05-18T00:53:16.210Z,8.38
2023-05-18T00:54:16.220Z,8.35
2023-05-18T00:55:16.366Z,8.36
2023-05-18T00:56:16.256Z,8.51
2023-05-18T00:57:16.297Z,8.27
2023-05-18T00:58:16.309Z,8.28
2023-05-18T00:59:16.322Z,8.31
2023-05-18T01:00:16.345Z,8.35
2023-05-18T01:01:16.371Z,8.36
2023-05-18T01:02:16.382Z,8.41
2023-05-18T01:03:16.499Z,8.32
2023-05-18T01:04:16.391Z,8.32
2023-05-18T01:05:16.403Z,8.29
2023-05-18T01:06:16.406Z,8.30
2023-05-18T01:07:16.446Z,8.32
2023-05-18T01:08:16.443Z,8.34
2023-05-18T01:09:16.456Z,8.39
2023-05-18T01:10:16.454Z,8.31
2023-05-18T01:11:16.497Z,8.37
2023-05-18T01:12:16.474Z,8.46
2023-05-18T01:13:16.480Z,8.20
2023-05-18T01:14:16.496Z,8.33
2023-05-18T01:15:16.526Z,8.25
2023-05-18T01:16:16.512Z,8.24
2023-05-18T01:17:16.634Z,8.13
2023-05-18T01:18:16.532Z,8.14
2023-05-18T01:19:16.683Z,8.17
2023-05-18T01:20:16.587Z,8.17
2023-05-18T01:21:16.567Z,8.22
2023-05-18T01:22:16.585Z,8.22
2023-05-18T01:23:16.590Z,8.23
2023-05-18T01:24:16.608Z,8.22
2023-05-18T01:25:16.618Z,8.12
2023-05-18T01:26:16.635Z,8.09
2023-05-18T01:27:16.641Z,8.24
2023-05-18T01:28:16.644Z,8.12
2023-05-18T01:29:16.654Z,8.05
2023-05-18T01:30:16.668Z,8.17
2023-05-18T01:31:16.749Z,8.12
2023-05-18T01:32:16.676Z,8.06
2023-05-18T01:33:16.693Z,7.97
2023-05-18T01:34:16.712Z,8.01
2023-05-18T01:35:16.725Z,7.91
2023-05-18T01:36:16.737Z,7.92
2023-05-18T01:37:16.759Z,7.90
2023-05-18T01:38:16.770Z,7.97
2023-05-18T01:39:16.792Z,7.94
2023-05-18T01:40:16.808Z,7.85
2023-05-18T01:41:16.812Z,7.83
2023-05-18T01:42:16.835Z,7.88
2023-05-18T01:43:16.838Z,7.86
2023-05-18T01:44:16.849Z,7.82
2023-05-18T01:45:16.868Z,7.74
2023-05-18T01:46:16.938Z,7.71
2023-05-18T01:47:16.890Z,7.75
2023-05-18T01:48:16.913Z,7.72
2023-05-18T01:49:16.923Z,7.68
2023-05-18T01:50:16.957Z,7.69
2023-05-18T01:51:16.949Z,7.66
2023-05-18T01:52:16.972Z,7.69
2023-05-18T01:53:16.967Z,7.68
2023-05-18T01:54:16.998Z,7.60
2023-05-18T01:55:17.002Z,7.61
2023-05-18T01:56:17.027Z,7.67
2023-05-18T01:57:17.034Z,7.58
2023-05-18T01:58:17.055Z,7.62
2023-05-18T01:59:17.068Z,7.59
2023-05-18T02:00:17.083Z,7.54
2023-05-18T02:01:17.143Z,7.58
2023-05-18T02:02:17.229Z,7.61
2023-05-18T02:03:17.290Z,7.62
2023-05-18T02:04:17.166Z,7.42
2023-05-18T02:05:17.143Z,7.51
2023-05-18T02:06:17.161Z,7.47
2023-05-18T02:07:17.186Z,7.45
2023-05-18T02:08:17.204Z,7.40
2023-05-18T02:09:17.201Z,7.35
2023-05-18T02:10:17.223Z,7.43
2023-05-18T02:11:17.234Z,7.44
2023-05-18T02:12:17.261Z,7.34
2023-05-18T02:13:17.262Z,7.37
2023-05-18T02:14:17.295Z,7.39
2023-05-18T02:15:17.303Z,7.31
2023-05-18T02:16:17.451Z,7.31
2023-05-18T02:17:17.344Z,7.37
2023-05-18T02:18:17.384Z,7.23
2023-05-18T02:19:17.470Z,7.24
2023-05-18T02:20:17.411Z,7.28
2023-05-18T02:21:17.410Z,7.32
2023-05-18T02:22:17.416Z,7.28
2023-05-18T02:23:17.439Z,7.35
2023-05-18T02:24:17.445Z,7.38
2023-05-18T02:25:17.465Z,7.36
2023-05-18T02:26:17.482Z,7.29
2023-05-18T02:27:17.478Z,7.24
2023-05-18T02:28:17.489Z,7.25
2023-05-18T02:29:17.538Z,7.22
2023-05-18T02:30:17.527Z,7.23
2023-05-18T02:31:17.657Z,7.17
2023-05-18T02:32:17.598Z,7.15
2023-05-18T02:33:17.531Z,7.18
2023-05-18T02:34:17.559Z,7.12
2023-05-18T02:35:17.555Z,7.15
2023-05-18T02:36:17.562Z,7.12
2023-05-18T02:37:17.568Z,7.10
2023-05-18T02:38:17.574Z,7.10
2023-05-18T02:39:17.603Z,7.07
2023-05-18T02:40:17.611Z,7.01
2023-05-18T02:41:17.615Z,7.15
2023-05-18T02:42:17.612Z,7.03
2023-05-18T02:43:17.622Z,7.06
2023-05-18T02:44:17.675Z,7.03
2023-05-18T02:45:17.664Z,6.96
2023-05-18T02:46:17.676Z,6.97
2023-05-18T02:47:17.662Z,7.08
2023-05-18T02:48:17.675Z,6.98
2023-05-18T02:49:17.688Z,6.96
2023-05-18T02:50:17.700Z,6.95
2023-05-18T02:51:17.710Z,6.88
2023-05-18T02:52:17.728Z,6.90
2023-05-18T02:53:17.730Z,6.81
2023-05-18T02:54:17.760Z,6.88
2023-05-18T02:55:17.778Z,6.90
2023-05-18T02:56:17.782Z,6.87
2023-05-18T02:57:17.802Z,6.87
2023-05-18T02:58:17.823Z,6.91
2023-05-18T02:59:17.845Z,6.82
2023-05-18T03:00:17.880Z,6.82
2023-05-18T03:01:17.952Z,6.11
2023-05-18T03:02:17.991Z,5.18
2023-05-18T03:03:18.048Z,4.59
2023-05-18T03:04:17.963Z,4.04
2023-05-18T03:05:18.003Z,3.64
2023-05-18T03:06:18.034Z,3.33
2023-05-18T03:07:18.070Z,3.00
2023-05-18T03:08:18.116Z,2.72
2023-05-18T03:09:18.162Z,2.53
2023-05-18T03:10:18.217Z,2.30
2023-05-18T03:11:18.287Z,2.13
2023-05-18T03:12:18.341Z,1.94
2023-05-18T03:13:18.419Z,1.78
2023-05-18T03:14:18.489Z,1.66
2023-05-18T03:15:18.569Z,1.52
2023-05-18T03:16:18.690Z,1.41
2023-05-18T03:17:18.723Z,1.34
2023-05-18T03:18:18.811Z,1.21
2023-05-18T03:19:18.967Z,1.17
2023-05-18T03:20:18.937Z,1.17
2023-05-18T03:21:18.982Z,1.08
2023-05-18T03:22:19.006Z,1.00
2023-05-18T03:23:19.038Z,0.97
2023-05-18T03:24:19.082Z,0.95
2023-05-18T03:25:19.121Z,0.89
2023-05-18T03:26:19.167Z,0.87
2023-05-18T03:27:19.183Z,0.81
2023-05-18T03:28:19.222Z,0.79
2023-05-18T03:29:19.252Z,0.79
2023-05-18T03:30:19.286Z,0.79
2023-05-18T03:31:19.355Z,0.75
2023-05-18T03:32:19.345Z,0.73
2023-05-18T03:33:19.374Z,0.72
2023-05-18T03:34:19.414Z,0.70
2023-05-18T03:35:19.434Z,0.67
2023-05-18T03:36:19.470Z,0.67
2023-05-18T03:37:19.506Z,0.66
2023-05-18T03:38:19.544Z,0.63
2023-05-18T03:39:19.588Z,0.62
2023-05-18T03:40:19.680Z,0.60
2023-05-18T03:41:19.772Z,0.58
2023-05-18T03:42:19.880Z,0.57
2023-05-18T03:43:19.975Z,0.56
2023-05-18T03:44:20.085Z,0.55
2023-05-18T03:45:20.188Z,0.52
2023-05-18T03:46:20.328Z,0.52
2023-05-18T03:47:20.379Z,0.50
2023-05-18T03:48:20.478Z,0.50
2023-05-18T03:49:20.584Z,0.50
2023-05-18T03:50:20.690Z,0.50
2023-05-18T03:51:20.791Z,0.50
2023-05-18T03:52:20.879Z,0.50
2023-05-18T03:53:20.993Z,0.50
2023-05-18T03:54:21.076Z,0.50
2023-05-18T03:55:21.186Z,0.50
2023-05-18T03:56:21.282Z,0.50
2023-05-18T03:57:21.383Z,0.51
2023-05-18T03:58:21.482Z,0.51
2023-05-18T03:59:21.585Z,0.50
2023-05-18T04:00:21.705Z,0.50
2023-05-18T04:01:21.784Z,0.53
2023-05-18T04:02:22.003Z,0.51
2023-05-18T04:03:22.055Z,0.50
2023-05-18T04:04:22.197Z,0.51
2023-05-18T04:05:22.215Z,0.50
2023-05-18T04:06:22.310Z,0.51
2023-05-18T04:07:22.411Z,0.50
2023-05-18T04:08:22.535Z,0.53
2023-05-18T04:09:22.630Z,0.52
2023-05-18T04:10:22.744Z,0.51
2023-05-18T04:11:22.841Z,0.50
2023-05-18T04:12:22.953Z,0.51
2023-05-18T04:13:23.047Z,0.51
2023-05-18T04:14:23.153Z,0.51
2023-05-18T04:15:23.238Z,0.51
2023-05-18T04:16:23.355Z,0.51
2023-05-18T04:17:23.397Z,0.51
2023-05-18T04:18:23.448Z,0.51
2023-05-18T04:19:23.566Z,0.52
2023-05-18T04:20:23.608Z,0.50
2023-05-18T04:21:23.684Z,0.52
2023-05-18T04:22:23.764Z,0.51
2023-05-18T04:23:23.847Z,0.52
2023-05-18T04:24:23.914Z,0.50
2023-05-18T04:25:23.988Z,0.50
2023-05-18T04:26:24.054Z,0.51
2023-05-18T04:27:24.147Z,0.51
2023-05-18T04:28:24.207Z,0.50
2023-05-18T04:29:24.284Z,0.52
2023-05-18T04:30:24.346Z,0.51
2023-05-18T04:31:24.406Z,0.52
2023-05-18T04:32:24.454Z,0.51
2023-05-18T04:33:24.509Z,0.52
2023-05-18T04:34:24.566Z,0.52
2023-05-18T04:35:24.599Z,0.51
2023-05-18T04:36:24.642Z,0.51
2023-05-18T04:37:24.672Z,0.50
2023-05-18T04:38:24.715Z,0.50
2023-05-18T04:39:24.742Z,0.51
2023-05-18T04:40:24.820Z,0.52
2023-05-18T04:41:24.829Z,0.52
2023-05-18T04:42:24.865Z,0.52
2023-05-18T04:43:24.893Z,0.51
2023-05-18T04:44:24.925Z,0.50
2023-05-18T04:45:24.964Z,0.51
2023-05-18T04:46:25.034Z,0.51
2023-05-18T04:47:25.064Z,0.50
2023-05-18T04:48:25.071Z,0.51
2023-05-18T04:49:25.107Z,0.51
2023-05-18T04:50:25.174Z,0.51
2023-05-18T04:51:25.177Z,0.51
2023-05-18T04:52:25.210Z,0.49
2023-05-18T04:53:25.254Z,0.49
2023-05-18T04:54:25.280Z,0.48
2023-05-18T04:55:25.317Z,0.47
2023-05-18T04:56:25.348Z,0.50
2023-05-18T04:57:25.384Z,0.50
2023-05-18T04:58:25.415Z,0.51
2023-05-18T04:59:25.445Z,0.53
2023-05-18T05:00:25.479Z,0.52
2023-05-18T05:01:25.576Z,0.53
2023-05-18T05:02:25.595Z,0.53
2023-05-18T05:03:25.646Z,0.53
2023-05-18T05:04:25.605Z,0.53
2023-05-18T05:05:25.650Z,0.52
2023-05-18T05:06:25.692Z,0.53
2023-05-18T05:07:25.729Z,0.53
2023-05-18T05:08:25.776Z,0.54
2023-05-18T05:09:25.796Z,0.55
2023-05-18T05:10:25.857Z,0.55
2023-05-18T05:11:25.910Z,0.52
2023-05-18T05:12:25.918Z,0.51
2023-05-18T05:13:25.956Z,0.51
2023-05-18T05:14:25.997Z,0.50
2023-05-18T05:15:26.045Z,0.50
2023-05-18T05:16:26.239Z,0.52
2023-05-18T05:17:26.176Z,0.50
2023-05-18T05:18:26.185Z,0.50
2023-05-18T05:19:26.323Z,0.50
2023-05-18T05:20:26.266Z,0.48
2023-05-18T05:21:26.284Z,0.47
2023-05-18T05:22:26.377Z,0.46
2023-05-18T05:23:26.369Z,0.45
2023-05-18T05:24:26.407Z,0.50
2023-05-18T05:25:26.447Z,0.50
2023-05-18T05:26:26.485Z,0.51
2023-05-18T05:27:26.517Z,0.52
2023-05-18T05:28:26.579Z,0.50
2023-05-18T05:29:26.604Z,0.50
2023-05-18T05:30:26.648Z,0.53
2023-05-18T05:31:26.705Z,0.51
2023-05-18T05:32:26.761Z,0.51
2023-05-18T05:33:26.753Z,0.50
2023-05-18T05:34:26.815Z,0.51
2023-05-18T05:35:26.904Z,0.51
2023-05-18T05:36:26.999Z,0.51
2023-05-18T05:37:27.078Z,0.52
2023-05-18T05:38:27.203Z,0.51
2023-05-18T05:39:27.289Z,0.50
2023-05-18T05:40:27.384Z,0.51
2023-05-18T05:41:27.468Z,0.50
2023-05-18T05:42:27.538Z,0.51
2023-05-18T05:43:27.718Z,0.50
2023-05-18T05:44:27.728Z,0.51
2023-05-18T05:45:27.806Z,0.50
2023-05-18T05:46:28.016Z,0.51
2023-05-18T05:47:27.984Z,0.51
2023-05-18T05:48:28.021Z,0.52
2023-05-18T05:49:28.111Z,0.50
2023-05-18T05:50:28.158Z,0.52
2023-05-18T05:51:28.210Z,0.51
2023-05-18T05:52:28.255Z,0.51
2023-05-18T05:53:28.326Z,0.51
2023-05-18T05:54:28.398Z,0.50
2023-05-18T05:55:28.522Z,0.51
2023-05-18T05:56:28.466Z,0.50
2023-05-18T05:57:28.538Z,0.51
2023-05-18T05:58:28.602Z,0.51
2023-05-18T05:59:28.676Z,0.50
2023-05-18T06:00:28.651Z,0.51
2023-05-18T06:01:28.686Z,0.50
2023-05-18T06:02:28.831Z,0.50
2023-05-18T06:03:28.865Z,0.49
2023-05-18T06:04:28.930Z,0.48
2023-05-18T06:05:29.090Z,0.48
2023-05-18T06:06:28.870Z,0.47
2023-05-18T06:07:28.932Z,0.51
2023-05-18T06:08:28.961Z,0.51
2023-05-18T06:09:28.996Z,0.51
2023-05-18T06:10:29.013Z,0.51
2023-05-18T06:11:29.057Z,0.51
2023-05-18T06:12:29.090Z,0.52
2023-05-18T06:13:29.131Z,0.55
2023-05-18T06:14:29.168Z,0.53
2023-05-18T06:15:29.398Z,0.54
2023-05-18T06:16:29.317Z,0.56
2023-05-18T06:17:29.322Z,0.57
2023-05-18T06:18:29.329Z,0.55
2023-05-18T06:19:29.355Z,0.55
2023-05-18T06:20:29.513Z,0.54
2023-05-18T06:21:29.429Z,0.53
2023-05-18T06:22:29.528Z,0.51
2023-05-18T06:23:29.533Z,0.51
2023-05-18T06:24:29.593Z,0.51
2023-05-18T06:25:29.794Z,0.52
2023-05-18T06:26:29.643Z,0.50
2023-05-18T06:27:29.694Z,0.51
2023-05-18T06:28:29.729Z,0.54
2023-05-18T06:29:29.770Z,0.57
2023-05-18T06:30:29.903Z,0.56
2023-05-18T06:31:30.590Z,0.57
2023-05-18T06:32:29.970Z,0.58
2023-05-18T06:33:30.002Z,0.56
2023-05-18T06:34:30.058Z,0.56
2023-05-18T06:35:30.325Z,0.58
2023-05-18T06:36:30.217Z,0.55
2023-05-18T06:37:30.314Z,0.56
2023-05-18T06:38:30.382Z,0.58
2023-05-18T06:39:30.447Z,0.57
2023-05-18T06:40:30.510Z,0.56
2023-05-18T06:41:30.565Z,0.57
2023-05-18T06:42:30.657Z,0.57
2023-05-18T06:43:30.704Z,0.56
2023-05-18T06:44:30.772Z,0.54
2023-05-18T06:45:31.761Z,0.53
2023-05-18T06:46:31.006Z,0.56
2023-05-18T06:47:31.034Z,0.56
2023-05-18T06:48:31.059Z,0.56
2023-05-18T06:49:31.127Z,0.57
2023-05-18T06:50:31.223Z,0.58
2023-05-18T06:51:31.342Z,0.60
2023-05-18T06:52:31.374Z,0.60
2023-05-18T06:53:31.402Z,0.58
2023-05-18T06:54:31.437Z,0.57
2023-05-18T06:55:31.714Z,0.58
2023-05-18T06:56:31.545Z,0.57
2023-05-18T06:57:31.578Z,0.56
2023-05-18T06:58:31.602Z,0.53
2023-05-18T06:59:31.646Z,0.50
2023-05-18T07:00:31.698Z,0.51
2023-05-18T07:01:31.732Z,0.50
2023-05-18T07:02:31.832Z,0.51
2023-05-18T07:03:31.932Z,0.51
2023-05-18T07:04:31.996Z,0.51
2023-05-18T07:05:32.243Z,0.51
2023-05-18T07:06:32.169Z,0.51
2023-05-18T07:07:32.352Z,0.50
2023-05-18T07:08:32.348Z,0.51
2023-05-18T07:09:32.450Z,0.50
2023-05-18T07:10:32.554Z,0.50
2023-05-18T07:11:32.658Z,0.52
2023-05-18T07:12:32.763Z,0.51
2023-05-18T07:13:32.882Z,0.52
2023-05-18T07:14:32.961Z,0.53
2023-05-18T07:15:33.275Z,0.51
2023-05-18T07:16:33.227Z,0.51
2023-05-18T07:17:33.333Z,0.50
2023-05-18T07:18:33.383Z,0.50
2023-05-18T07:19:33.490Z,0.50
2023-05-18T07:20:33.611Z,0.52
2023-05-18T07:21:33.715Z,0.51
2023-05-18T07:22:33.837Z,0.52
2023-05-18T07:23:33.950Z,0.51
2023-05-18T07:24:34.038Z,0.51
2023-05-18T07:25:34.151Z,0.52
2023-05-18T07:26:34.255Z,0.52
2023-05-18T07:27:34.351Z,0.51
2023-05-18T07:28:34.463Z,0.53
2023-05-18T07:29:34.565Z,0.51
2023-05-18T07:30:34.702Z,0.51
2023-05-18T07:31:34.813Z,0.50
2023-05-18T07:32:34.892Z,0.51
2023-05-18T07:33:34.981Z,0.52
2023-05-18T07:34:35.082Z,0.50
2023-05-18T07:35:35.200Z,0.51
2023-05-18T07:36:35.306Z,0.52
2023-05-18T07:37:35.404Z,0.51
2023-05-18T07:38:35.529Z,0.52
2023-05-18T07:39:35.553Z,0.52
2023-05-18T07:40:35.609Z,0.52
2023-05-18T07:41:35.637Z,0.52
2023-05-18T07:42:35.672Z,0.53
2023-05-18T07:43:35.710Z,0.53
2023-05-18T07:44:35.741Z,0.52
2023-05-18T07:45:35.782Z,0.52
2023-05-18T07:46:35.917Z,0.52
2023-05-18T07:47:35.882Z,0.54
2023-05-18T07:48:36.210Z,0.55
2023-05-18T07:49:35.924Z,0.55
2023-05-18T07:50:35.976Z,0.56
2023-05-18T07:51:35.993Z,0.55
2023-05-18T07:52:36.033Z,0.54
2023-05-18T07:53:36.090Z,0.54
2023-05-18T07:54:36.184Z,0.54
2023-05-18T07:55:36.297Z,0.52
2023-05-18T07:56:36.390Z,0.52
2023-05-18T07:57:36.508Z,0.51
2023-05-18T07:58:36.720Z,0.51
2023-05-18T07:59:36.692Z,0.51
2023-05-18T08:00:36.798Z,0.54
2023-05-18T08:01:36.929Z,0.53
2023-05-18T08:02:37.128Z,0.51
2023-05-18T08:03:37.189Z,0.52
2023-05-18T08:04:37.206Z,0.50
2023-05-18T08:05:37.330Z,0.50
2023-05-18T08:06:37.419Z,0.52
2023-05-18T08:07:37.573Z,0.51
2023-05-18T08:08:37.576Z,0.50
2023-05-18T08:09:37.664Z,0.51
2023-05-18T08:10:37.734Z,0.52
2023-05-18T08:11:37.775Z,0.50
2023-05-18T08:12:37.802Z,0.50
2023-05-18T08:13:37.859Z,0.47
2023-05-18T08:14:37.889Z,0.47
2023-05-18T08:15:37.948Z,0.49
2023-05-18T08:16:37.988Z,0.51
2023-05-18T08:17:38.016Z,0.51
2023-05-18T08:18:38.049Z,0.53
2023-05-18T08:19:39.778Z,0.52
2023-05-18T08:20:38.059Z,0.52
2023-05-18T08:21:38.110Z,0.51
2023-05-18T08:22:38.121Z,0.52
2023-05-18T08:23:38.143Z,0.50
2023-05-18T08:24:38.169Z,0.51
2023-05-18T08:25:38.234Z,0.51
2023-05-18T08:26:38.258Z,0.50
2023-05-18T08:27:38.266Z,0.50
2023-05-18T08:28:38.282Z,0.52
2023-05-18T08:29:38.340Z,0.52
2023-05-18T08:30:38.350Z,0.50
2023-05-18T08:31:38.443Z,0.51
2023-05-18T08:32:38.492Z,0.52
2023-05-18T08:33:38.454Z,0.51
2023-05-18T08:34:38.490Z,0.51
2023-05-18T08:35:38.529Z,0.50
2023-05-18T08:36:38.559Z,0.50
2023-05-18T08:37:38.603Z,0.51
2023-05-18T08:38:38.614Z,0.50
2023-05-18T08:39:38.661Z,0.50
2023-05-18T08:40:38.687Z,0.51
2023-05-18T08:41:38.710Z,0.51
2023-05-18T08:42:49.424Z,0.51
2023-05-18T08:43:38.779Z,0.51
2023-05-18T08:44:38.797Z,0.50
2023-05-18T08:45:38.827Z,0.50
2023-05-18T08:46:38.862Z,0.47
2023-05-18T08:47:38.998Z,0.48
2023-05-18T08:48:38.998Z,0.50
2023-05-18T08:49:38.958Z,0.50
2023-05-18T08:50:39.016Z,0.50
2023-05-18T08:51:39.027Z,0.52
2023-05-18T08:52:39.054Z,0.51
2023-05-18T08:53:39.091Z,0.52
2023-05-18T08:54:39.169Z,0.53
2023-05-18T08:55:39.359Z,0.54
2023-05-18T08:56:39.337Z,0.53
2023-05-18T08:57:39.382Z,0.53
2023-05-18T08:58:39.461Z,0.53
2023-05-18T08:59:39.428Z,0.53
2023-05-18T09:00:39.466Z,0.53
2023-05-18T09:01:39.505Z,0.53
2023-05-18T09:02:39.563Z,0.51
2023-05-18T09:03:39.572Z,0.53
2023-05-18T09:04:39.608Z,0.55
2023-05-18T09:05:39.609Z,0.59
2023-05-18T09:06:39.706Z,0.64
2023-05-18T09:07:39.780Z,0.69
2023-05-18T09:08:39.869Z,0.76
2023-05-18T09:09:39.951Z,0.95
2023-05-18T09:10:40.051Z,1.09
2023-05-18T09:11:40.124Z,1.29
2023-05-18T09:12:40.226Z,1.52
2023-05-18T09:13:40.324Z,1.69
2023-05-18T09:14:40.394Z,1.88
2023-05-18T09:15:40.531Z,2.05
2023-05-18T09:16:40.570Z,2.36
2023-05-18T09:17:40.664Z,2.67
2023-05-18T09:18:40.739Z,3.09
2023-05-18T09:19:40.803Z,3.25
2023-05-18T09:20:40.893Z,3.42
2023-05-18T09:21:40.962Z,3.66
2023-05-18T09:22:41.042Z,3.97
2023-05-18T09:23:41.103Z,4.37
2023-05-18T09:24:41.189Z,4.33
2023-05-18T09:25:41.244Z,4.89
2023-05-18T09:26:41.317Z,5.38
2023-05-18T09:27:41.381Z,5.62
2023-05-18T09:28:41.443Z,5.98
2023-05-18T09:29:41.490Z,6.65
2023-05-18T09:30:41.567Z,7.09
2023-05-18T09:31:41.632Z,7.72
2023-05-18T09:32:41.772Z,8.18
2023-05-18T09:33:41.797Z,8.38
2023-05-18T09:34:41.794Z,8.81
2023-05-18T09:35:41.858Z,9.20
2023-05-18T09:36:41.914Z,9.48
2023-05-18T09:37:42.025Z,9.99
2023-05-18T09:38:42.025Z,10.54
2023-05-18T09:39:42.091Z,10.92
2023-05-18T09:40:42.159Z,11.12
2023-05-18T09:41:42.213Z,11.80
2023-05-18T09:42:42.253Z,12.03
2023-05-18T09:43:42.304Z,12.33
2023-05-18T09:44:42.335Z,12.36
2023-05-18T09:45:42.342Z,12.52
2023-05-18T09:46:42.428Z,12.81
2023-05-18T09:47:42.427Z,13.62
2023-05-18T09:48:42.386Z,12.41
2023-05-18T09:49:42.410Z,12.73
2023-05-18T09:50:42.412Z,13.44
2023-05-18T09:51:42.430Z,14.61
2023-05-18T09:52:42.448Z,16.36
2023-05-18T09:53:42.448Z,17.20
2023-05-18T09:54:42.464Z,17.40
2023-05-18T09:55:42.492Z,17.99
2023-05-18T09:56:42.495Z,18.25
2023-05-18T09:57:42.510Z,18.49
2023-05-18T09:58:42.525Z,18.81
2023-05-18T09:59:42.588Z,19.33
2023-05-18T10:00:42.608Z,19.69
2023-05-18T10:01:42.565Z,20.41
2023-05-18T10:02:42.624Z,20.77
2023-05-18T10:03:42.584Z,21.17
2023-05-18T10:04:42.807Z,21.21
2023-05-18T10:05:42.626Z,21.40
2023-05-18T10:06:42.625Z,21.74
2023-05-18T10:07:42.650Z,22.28
2023-05-18T10:08:42.662Z,23.55
2023-05-18T10:09:42.669Z,24.01
2023-05-18T10:10:42.716Z,24.01
2023-05-18T10:11:42.705Z,24.27
2023-05-18T10:12:42.718Z,24.56
2023-05-18T10:13:42.729Z,24.86
2023-05-18T10:14:42.742Z,25.04
2023-05-18T10:15:42.788Z,25.09
2023-05-18T10:16:42.857Z,25.15
2023-05-18T10:17:42.877Z,25.29
2023-05-18T10:18:42.820Z,25.69
2023-05-18T10:19:42.799Z,26.20
2023-05-18T10:20:42.825Z,27.45
2023-05-18T10:21:42.829Z,27.72
2023-05-18T10:22:42.843Z,27.78
2023-05-18T10:23:42.868Z,27.85
2023-05-18T10:24:42.861Z,28.19
2023-05-18T10:25:42.880Z,28.54
2023-05-18T10:26:42.878Z,28.83
2023-05-18T10:27:42.899Z,28.82
2023-05-18T10:28:42.902Z,29.31
2023-05-18T10:29:42.908Z,29.22
2023-05-18T10:30:42.953Z,29.46
2023-05-18T10:31:42.929Z,29.43
2023-05-18T10:32:42.994Z,29.86
2023-05-18T10:33:42.980Z,29.88
2023-05-18T10:34:42.969Z,30.17
2023-05-18T10:35:43.026Z,30.17
2023-05-18T10:36:43.008Z,30.59
2023-05-18T10:37:43.015Z,30.72
2023-05-18T10:38:43.082Z,30.68
2023-05-18T10:39:43.151Z,30.87
2023-05-18T10:40:43.241Z,31.19
2023-05-18T10:41:43.305Z,31.41
2023-05-18T10:42:43.400Z,31.76
2023-05-18T10:43:43.465Z,31.55
2023-05-18T10:44:44.475Z,32.05
2023-05-18T10:45:43.598Z,32.01
2023-05-18T10:46:43.775Z,32.19
2023-05-18T10:47:43.978Z,32.44
2023-05-18T10:48:43.776Z,32.43
2023-05-18T10:49:43.829Z,32.30
2023-05-18T10:50:43.918Z,32.49
2023-05-18T10:51:43.994Z,32.72
2023-05-18T10:52:44.090Z,32.84
2023-05-18T10:53:44.139Z,32.92
2023-05-18T10:54:44.202Z,33.39
2023-05-18T10:55:44.281Z,33.11
2023-05-18T10:56:44.375Z,33.27
2023-05-18T10:57:44.421Z,33.40
2023-05-18T10:58:44.500Z,33.31
2023-05-18T10:59:46.719Z,33.60
2023-05-18T11:00:44.597Z,33.65
2023-05-18T11:01:44.669Z,33.74
2023-05-18T11:02:44.658Z,33.82
2023-05-18T11:03:44.619Z,34.08
2023-05-18T11:04:44.664Z,34.52
2023-05-18T11:05:44.654Z,34.36
2023-05-18T11:06:44.650Z,34.45
2023-05-18T11:07:44.664Z,34.15
2023-05-18T11:08:44.661Z,34.34
2023-05-18T11:09:44.724Z,34.66
2023-05-18T11:10:44.781Z,34.28
2023-05-18T11:11:44.851Z,34.60
2023-05-18T11:12:44.915Z,34.57
2023-05-18T11:13:45.011Z,34.43
2023-05-18T11:14:45.077Z,34.47
2023-05-18T11:15:45.207Z,34.49
2023-05-18T11:16:45.254Z,34.43
2023-05-18T11:17:45.329Z,34.30
2023-05-18T11:18:45.435Z,34.12
2023-05-18T11:19:45.462Z,34.31
2023-05-18T11:20:45.547Z,34.12
2023-05-18T11:21:45.620Z,33.38
2023-05-18T11:22:45.702Z,34.10
2023-05-18T11:23:45.776Z,33.70
2023-05-18T11:24:45.860Z,33.92
2023-05-18T11:25:45.927Z,33.01
2023-05-18T11:26:46.002Z,33.56
2023-05-18T11:27:46.075Z,33.04
2023-05-18T11:28:47.278Z,33.60
2023-05-18T11:29:46.149Z,33.62
2023-05-18T11:30:46.168Z,33.64
2023-05-18T11:31:46.256Z,33.88
2023-05-18T11:32:46.308Z,33.68
2023-05-18T11:33:46.236Z,33.24
2023-05-18T11:34:46.188Z,33.23
2023-05-18T11:35:46.220Z,33.27
2023-05-18T11:36:46.213Z,33.50
2023-05-18T11:37:46.193Z,33.32
2023-05-18T11:38:46.192Z,33.59
2023-05-18T11:39:58.228Z,33.45
2023-05-18T11:40:47.214Z,33.50
2023-05-18T11:41:46.214Z,33.58
2023-05-18T11:42:46.217Z,33.65
2023-05-18T11:43:46.230Z,33.66
2023-05-18T11:44:46.231Z,33.89
2023-05-18T11:45:46.243Z,34.04
2023-05-18T11:46:46.257Z,33.00
2023-05-18T11:47:46.302Z,33.34
2023-05-18T11:48:46.337Z,33.83
2023-05-18T11:49:46.280Z,32.75
2023-05-18T11:50:46.345Z,33.21
2023-05-18T11:51:46.410Z,33.27
2023-05-18T11:52:46.496Z,33.67
2023-05-18T11:53:46.550Z,32.79
2023-05-18T11:54:46.620Z,33.23
2023-05-18T11:55:46.752Z,33.36
2023-05-18T11:56:46.760Z,32.74
2023-05-18T11:57:46.821Z,32.89
2023-05-18T11:58:46.889Z,33.49
2023-05-18T11:59:46.900Z,33.50
2023-05-18T12:00:46.895Z,33.52
2023-05-18T12:01:46.949Z,33.00
2023-05-18T12:02:47.099Z,33.48
2023-05-18T12:03:48.578Z,33.52
2023-05-18T12:04:47.004Z,33.19
2023-05-18T12:05:46.910Z,33.89
2023-05-18T12:06:46.905Z,33.35
2023-05-18T12:07:46.952Z,33.44
2023-05-18T12:08:46.915Z,32.98
2023-05-18T12:09:46.997Z,33.24
2023-05-18T12:10:47.030Z,33.04
2023-05-18T12:11:47.100Z,33.55
2023-05-18T12:12:47.168Z,33.07
2023-05-18T12:13:47.213Z,33.18
2023-05-18T12:14:47.270Z,32.51
2023-05-18T12:15:47.351Z,32.34
2023-05-18T12:16:47.445Z,33.22
2023-05-18T12:17:47.518Z,32.88
2023-05-18T12:18:47.557Z,32.63
2023-05-18T12:19:47.574Z,32.69
2023-05-18T12:20:47.632Z,32.82
2023-05-18T12:21:47.690Z,32.19
2023-05-18T12:22:47.751Z,32.95
2023-05-18T12:23:47.827Z,31.93
2023-05-18T12:24:47.870Z,33.09
2023-05-18T12:25:47.938Z,31.96
2023-05-18T12:26:47.986Z,32.28
2023-05-18T12:27:48.027Z,32.33
2023-05-18T12:28:47.997Z,32.48
2023-05-18T12:29:48.017Z,32.45
2023-05-18T12:30:48.018Z,32.64
2023-05-18T12:31:47.988Z,32.54
2023-05-18T12:32:48.011Z,33.22
2023-05-18T12:33:47.995Z,33.17
2023-05-18T12:34:48.000Z,32.46
2023-05-18T12:35:48.011Z,33.01
2023-05-18T12:36:48.004Z,32.31
2023-05-18T12:37:48.049Z,32.58
2023-05-18T12:38:48.002Z,31.73
2023-05-18T12:39:48.055Z,32.09
2023-05-18T12:40:48.110Z,32.17
2023-05-18T12:41:48.165Z,31.99
2023-05-18T12:42:48.228Z,31.81
2023-05-18T12:43:48.284Z,32.36
2023-05-18T12:44:48.349Z,31.50
2023-05-18T12:45:48.393Z,31.71
2023-05-18T12:46:48.526Z,31.73
2023-05-18T12:47:48.587Z,31.95
2023-05-18T12:48:48.556Z,32.03
2023-05-18T12:49:48.602Z,31.83
2023-05-18T12:50:48.673Z,30.98
2023-05-18T12:51:48.713Z,31.14
2023-05-18T12:52:48.768Z,31.30
2023-05-18T12:53:48.817Z,31.22
2023-05-18T12:54:48.870Z,31.36
2023-05-18T12:55:48.994Z,30.95
2023-05-18T12:56:48.985Z,31.49
2023-05-18T12:57:49.030Z,30.92
2023-05-18T12:58:49.028Z,30.97
2023-05-18T12:59:49.061Z,31.03
2023-05-18T13:00:49.067Z,31.09
2023-05-18T13:01:49.118Z,31.22
2023-05-18T13:02:49.126Z,31.39
2023-05-18T13:03:49.102Z,30.70
2023-05-18T13:04:49.070Z,31.49
2023-05-18T13:05:49.068Z,30.97
2023-05-18T13:06:49.073Z,31.26
2023-05-18T13:07:49.072Z,31.55
2023-05-18T13:08:49.077Z,30.42
2023-05-18T13:09:49.076Z,30.49
2023-05-18T13:10:58.072Z,30.25
2023-05-18T13:11:57.078Z,30.31